Time;durP1;ratioP1;P1;durP2;ratioP2;P2;SDS_P1;SDS_P2;PMS_P1;PMS_P2;Temp;Humidity;BMP_temperature;BMP_pressure;BME280_temperature;BME280_humidity;BME280_pressure;Samples;Min_cycle;Max_cycle;Signal;HPM_P1;HPM_P2
2022/01/09 00:00:57;;;;;;;0.20;0.20;;;5.60;99.90;;;;;;5057615;28;20183;-88
2022/01/09 00:03:22;;;;;;;1.13;0.30;;;5.50;99.90;;;;;;5057381;28;20246;-90
2022/01/09 00:05:48;;;;;;;0.20;0.20;;;5.50;99.90;;;;;;5057186;28;20310;-88
2022/01/09 00:08:13;;;;;;;0.20;0.20;;;5.50;99.90;;;;;;5057454;28;20228;-87
2022/01/09 00:10:46;;;;;;;0.20;0.20;;;5.50;99.90;;;;;;5057389;28;20225;-89
2022/01/09 00:13:11;;;;;;;0.30;0.30;;;5.40;99.90;;;;;;5057841;28;20196;-89
2022/01/09 00:15:37;;;;;;;0.20;0.20;;;5.40;99.90;;;;;;5057483;28;20202;-89
2022/01/09 00:18:02;;;;;;;0.30;0.30;;;5.40;99.90;;;;;;5057358;28;20259;-89
2022/01/09 00:20:28;;;;;;;0.30;0.30;;;5.40;99.90;;;;;;5057378;28;20183;-90
2022/01/09 00:22:54;;;;;;;0.40;0.40;;;5.40;99.90;;;;;;5057449;28;20179;-89
2022/01/09 00:25:22;;;;;;;0.27;0.27;;;5.50;99.90;;;;;;5056994;28;20622;-88
2022/01/09 00:27:48;;;;;;;0.20;0.20;;;5.40;99.90;;;;;;5057326;28;20720;-89
2022/01/09 00:30:15;;;;;;;0.20;0.20;;;6.10;99.90;;;;;;5057603;28;20525;-89
2022/01/09 00:32:42;;;;;;;0.37;0.30;;;5.50;99.90;;;;;;5057810;28;20210;-88
2022/01/09 00:35:08;;;;;;;0.77;0.63;;;5.50;99.90;;;;;;5056904;28;20257;-88
2022/01/09 00:37:35;;;;;;;0.40;0.40;;;5.60;99.90;;;;;;5056425;28;20176;-88
2022/01/09 00:40:00;;;;;;;0.43;0.40;;;5.60;99.90;;;;;;5056604;28;20180;-88
2022/01/09 00:42:26;;;;;;;0.50;0.50;;;5.60;99.90;;;;;;5057391;28;20176;-90
2022/01/09 00:44:52;;;;;;;0.30;0.30;;;5.60;99.90;;;;;;5056103;28;20238;-88
2022/01/09 00:47:17;;;;;;;0.47;0.47;;;5.70;99.90;;;;;;5056134;28;20196;-89
2022/01/09 00:49:43;;;;;;;1.30;0.70;;;5.60;99.90;;;;;;5055881;28;20554;-88
2022/01/09 00:52:09;;;;;;;0.50;0.43;;;5.60;99.90;;;;;;5055816;28;20270;-89
2022/01/09 00:54:35;;;;;;;1.53;0.70;;;5.70;99.90;;;;;;5056597;28;20191;-90
2022/01/09 00:57:00;;;;;;;1.87;0.80;;;5.70;99.90;;;;;;5073611;28;20171;-90
2022/01/09 00:59:26;;;;;;;1.17;0.60;;;5.80;99.90;;;;;;5055823;28;20197;-89
2022/01/09 01:01:51;;;;;;;2.53;0.73;;;5.70;99.90;;;;;;5073848;28;20201;-87
2022/01/09 01:04:17;;;;;;;0.60;0.60;;;5.80;99.90;;;;;;5073943;28;20755;-89
2022/01/09 01:06:43;;;;;;;1.13;0.93;;;5.80;99.90;;;;;;5055057;28;20183;-88
2022/01/09 01:09:09;;;;;;;1.20;0.60;;;5.80;99.90;;;;;;5056436;28;20186;-88
2022/01/09 01:11:35;;;;;;;2.27;0.97;;;5.80;99.90;;;;;;5073836;28;20674;-89
2022/01/09 01:14:00;;;;;;;0.87;0.60;;;5.80;99.90;;;;;;5055834;28;20181;-90
2022/01/09 01:16:26;;;;;;;0.90;0.90;;;5.90;99.90;;;;;;5055521;28;20184;-88
2022/01/09 01:18:54;;;;;;;4.67;1.57;;;5.90;99.90;;;;;;5055599;28;20188;-88
2022/01/09 01:21:20;;;;;;;1.83;1.10;;;5.90;99.90;;;;;;5055756;28;20195;-89
2022/01/09 01:23:45;;;;;;;2.00;1.50;;;5.90;99.90;;;;;;5056027;28;20183;-88
2022/01/09 01:26:11;;;;;;;3.97;1.63;;;5.90;99.90;;;;;;5055459;28;20667;-88
2022/01/09 01:28:36;;;;;;;1.30;1.07;;;5.90;99.90;;;;;;5055847;28;20196;-90
2022/01/09 01:31:02;;;;;;;2.43;1.53;;;5.90;99.90;;;;;;5055441;28;20185;-90
2022/01/09 01:33:28;;;;;;;1.50;1.40;;;5.90;99.90;;;;;;5055431;28;20232;-88
2022/01/09 01:35:53;;;;;;;1.40;1.30;;;5.90;99.90;;;;;;5055254;28;20204;-88
2022/01/09 01:38:19;;;;;;;1.13;1.03;;;5.80;99.90;;;;;;5073595;28;20187;-88
2022/01/09 01:40:45;;;;;;;2.53;1.53;;;5.70;99.90;;;;;;5055912;28;20206;-88
2022/01/09 01:43:11;;;;;;;3.17;1.20;;;5.90;99.90;;;;;;5055825;28;20198;-87
2022/01/09 01:45:36;;;;;;;1.03;0.97;;;6.60;99.90;;;;;;5055159;28;20220;-88
2022/01/09 01:48:06;;;;;;;2.10;1.00;;;5.40;99.90;;;;;;5055542;28;20192;-88
2022/01/09 01:50:36;;;;;;;4.23;0.80;;;5.30;99.90;;;;;;5055204;28;20645;-87
2022/01/09 01:53:06;;;;;;;1.73;0.80;;;5.20;99.90;;;;;;5055187;28;20204;-87
2022/01/09 01:55:36;;;;;;;1.20;0.70;;;5.10;99.90;;;;;;5055171;28;20199;-88
2022/01/09 01:58:03;;;;;;;1.43;0.53;;;5.00;99.90;;;;;;5055178;28;20192;-88
2022/01/09 02:00:29;;;;;;;5.13;0.70;;;4.90;99.90;;;;;;5055479;28;20180;-88
2022/01/09 02:02:54;;;;;;;2.40;0.87;;;4.90;99.90;;;;;;5055124;28;20662;-88
2022/01/09 02:05:20;;;;;;;2.63;1.03;;;4.80;99.90;;;;;;5055068;28;20215;-88
2022/01/09 02:07:46;;;;;;;4.60;1.17;;;4.80;99.90;;;;;;5055287;28;20195;-88
2022/01/09 02:10:11;;;;;;;3.57;1.00;;;4.80;99.90;;;;;;5055025;28;20274;-88
2022/01/09 02:12:40;;;;;;;4.00;1.53;;;4.70;99.90;;;;;;5055044;28;20208;-88
2022/01/09 02:15:25;;;;;;;4.00;1.37;;;4.70;99.90;;;;;;5055543;28;20204;-87
2022/01/09 02:17:50;;;;;;;5.43;2.03;;;4.70;99.90;;;;;;5056495;28;20191;-89
2022/01/09 02:20:16;;;;;;;4.73;1.20;;;4.80;99.90;;;;;;5058914;28;20267;-87
2022/01/09 02:22:41;;;;;;;10.20;1.90;;;4.70;99.90;;;;;;5059509;28;20183;-88
2022/01/09 02:25:07;;;;;;;4.93;1.57;;;4.70;99.90;;;;;;5058542;28;20289;-89
2022/01/09 02:27:33;;;;;;;5.87;1.57;;;4.80;99.90;;;;;;5058674;28;20186;-89
2022/01/09 02:29:59;;;;;;;10.97;2.13;;;4.80;99.90;;;;;;5058681;28;20230;-87
2022/01/09 02:32:24;;;;;;;10.60;2.00;;;4.90;99.90;;;;;;5058620;28;20206;-89
2022/01/09 02:34:50;;;;;;;7.50;1.63;;;4.90;99.90;;;;;;5058636;28;20232;-89
2022/01/09 02:37:16;;;;;;;13.00;2.53;;;4.90;99.90;;;;;;5058587;28;20571;-86
2022/01/09 02:39:43;;;;;;;8.73;1.80;;;4.90;99.90;;;;;;5058418;28;20272;-89
2022/01/09 02:42:26;;;;;;;16.73;3.30;;;4.90;99.90;;;;;;5058502;28;20280;-88
2022/01/09 02:44:52;;;;;;;11.73;2.43;;;4.90;99.90;;;;;;5058188;28;20653;-87
2022/01/09 02:47:20;;;;;;;16.93;2.30;;;4.90;99.90;;;;;;5059488;28;20187;-87
2022/01/09 02:49:49;;;;;;;13.80;3.37;;;4.90;99.90;;;;;;5058668;28;20192;-87
2022/01/09 02:53:20;;;;;;;5.20;1.47;;;4.90;99.90;;;;;;5058155;28;20209;-87
2022/01/09 02:55:12;;;;;;;7.93;2.13;;;4.90;99.90;;;;;;5058260;28;20257;-88
2022/01/09 02:57:39;;;;;;;9.53;1.70;;;4.90;99.90;;;;;;5058868;28;20186;-88
2022/01/09 03:00:28;;;;;;;16.03;1.67;;;5.00;99.90;;;;;;5057952;28;20207;-88
2022/01/09 03:02:55;;;;;;;11.27;2.20;;;5.00;99.90;;;;;;5058156;28;20177;-88
2022/01/09 03:05:22;;;;;;;4.77;1.77;;;5.00;99.90;;;;;;5057849;28;20700;-89
2022/01/09 03:07:48;;;;;;;8.73;2.00;;;5.00;99.90;;;;;;5075675;28;20209;-88
2022/01/09 03:10:17;;;;;;;14.77;2.60;;;5.00;99.90;;;;;;5057888;28;20604;-89
2022/01/09 03:12:42;;;;;;;11.10;2.53;;;5.00;99.90;;;;;;5058428;28;20207;-88
2022/01/09 03:15:09;;;;;;;15.23;2.60;;;5.00;99.90;;;;;;5057880;28;20214;-88
2022/01/09 03:17:36;;;;;;;15.00;2.90;;;5.00;99.90;;;;;;5057776;28;20229;-87
2022/01/09 03:20:04;;;;;;;18.77;3.67;;;5.00;99.90;;;;;;5057625;28;20179;-87
2022/01/09 03:22:30;;;;;;;14.90;2.83;;;5.00;99.90;;;;;;5057565;28;20284;-88
2022/01/09 03:24:55;;;;;;;23.87;4.93;;;5.00;99.90;;;;;;5075575;28;20241;-87
2022/01/09 03:27:21;;;;;;;14.87;2.83;;;5.00;99.90;;;;;;5057536;28;20183;-89
2022/01/09 03:29:47;;;;;;;17.17;3.43;;;5.00;99.90;;;;;;5056563;28;20658;-88
2022/01/09 03:32:12;;;;;;;18.77;3.73;;;5.10;99.90;;;;;;5057389;28;20208;-88
2022/01/09 03:34:38;;;;;;;23.47;4.30;;;5.10;99.90;;;;;;5057220;28;20280;-89
2022/01/09 03:37:04;;;;;;;19.73;4.40;;;5.10;99.90;;;;;;5057474;28;20211;-87
2022/01/09 03:39:30;;;;;;;11.90;3.13;;;5.10;99.90;;;;;;5075568;28;20179;-89
2022/01/09 03:41:58;;;;;;;32.40;4.77;;;5.10;99.90;;;;;;5057116;28;20185;-89
2022/01/09 03:44:27;;;;;;;15.40;3.10;;;5.20;99.90;;;;;;5057107;28;20253;-88
2022/01/09 03:46:54;;;;;;;18.60;3.80;;;5.10;99.90;;;;;;5056971;28;20235;-87
2022/01/09 03:49:19;;;;;;;19.20;4.03;;;5.20;99.90;;;;;;5057215;28;20180;-89
2022/01/09 03:51:49;;;;;;;23.43;4.70;;;5.20;99.90;;;;;;5056877;28;20294;-88
2022/01/09 03:54:15;;;;;;;21.10;4.27;;;5.30;99.90;;;;;;5057915;28;20225;-85
2022/01/09 03:56:41;;;;;;;14.83;2.97;;;5.30;99.90;;;;;;5074961;28;20176;-88
2022/01/09 03:59:06;;;;;;;6.90;2.27;;;5.30;99.90;;;;;;5074698;28;20191;-88
2022/01/09 04:01:32;;;;;;;16.90;3.83;;;6.20;99.90;;;;;;5056806;28;20175;-88
2022/01/09 04:03:58;;;;;;;11.93;3.10;;;5.30;99.90;;;;;;5056996;28;20181;-87
2022/01/09 04:06:24;;;;;;;16.67;3.90;;;5.40;99.90;;;;;;5056783;28;20204;-87
2022/01/09 04:08:52;;;;;;;22.93;4.33;;;5.40;99.90;;;;;;5056590;28;20198;-88
2022/01/09 04:11:26;;;;;;;26.43;3.93;;;5.40;99.90;;;;;;5056548;28;20218;-88
2022/01/09 04:13:52;;;;;;;20.03;3.60;;;5.40;99.90;;;;;;5056754;28;20215;-88
2022/01/09 04:16:18;;;;;;;18.47;3.77;;;5.30;99.90;;;;;;5056691;28;20267;-89
2022/01/09 04:18:44;;;;;;;19.80;3.40;;;5.40;99.90;;;;;;5056659;28;20180;-88
2022/01/09 04:21:09;;;;;;;22.63;4.37;;;5.40;99.90;;;;;;5056421;28;20183;-88
2022/01/09 04:23:35;;;;;;;15.10;3.83;;;5.40;99.90;;;;;;5056454;28;20189;-89
2022/01/09 04:26:01;;;;;;;18.93;4.80;;;5.40;99.90;;;;;;5074150;28;20195;-86
2022/01/09 04:28:26;;;;;;;16.60;2.77;;;5.40;99.90;;;;;;5056886;28;20234;-88
2022/01/09 04:30:52;;;;;;;16.03;2.60;;;5.40;99.90;;;;;;5056301;28;20579;-88
2022/01/09 04:33:17;;;;;;;19.90;3.83;;;5.40;99.90;;;;;;5056214;28;20217;-88
2022/01/09 04:35:43;;;;;;;10.10;2.43;;;5.40;99.90;;;;;;5056324;28;20291;-88
2022/01/09 04:38:09;;;;;;;19.10;3.93;;;5.40;99.90;;;;;;5056518;28;20179;-88
2022/01/09 04:40:35;;;;;;;16.17;4.33;;;5.40;99.90;;;;;;5073698;28;20257;-88
2022/01/09 04:43:03;;;;;;;13.60;3.10;;;5.40;99.90;;;;;;5056212;28;20219;-88
2022/01/09 04:45:29;;;;;;;21.47;3.83;;;5.40;99.90;;;;;;5055711;28;20689;-87
2022/01/09 04:48:01;;;;;;;17.87;3.23;;;5.40;99.90;;;;;;5056064;28;20184;-88
2022/01/09 04:50:29;;;;;;;12.60;3.20;;;5.40;99.90;;;;;;5056273;28;20545;-89
2022/01/09 04:53:00;;;;;;;10.17;2.70;;;5.40;99.90;;;;;;5055954;28;20212;-90
2022/01/09 04:55:27;;;;;;;15.77;3.00;;;5.30;99.90;;;;;;5055820;28;20239;-89
2022/01/09 04:57:53;;;;;;;16.50;3.50;;;5.30;99.90;;;;;;5073857;28;20176;-89
2022/01/09 05:00:18;;;;;;;15.43;2.53;;;5.30;99.90;;;;;;5056583;28;20183;-91
2022/01/09 05:02:44;;;;;;;13.70;3.07;;;6.30;99.90;;;;;;5056089;28;20261;-89
2022/01/09 05:05:11;;;;;;;18.27;3.27;;;5.30;99.90;;;;;;5055906;28;20666;-89
2022/01/09 05:07:37;;;;;;;16.83;2.90;;;5.40;99.90;;;;;;5055660;28;20187;-88
2022/01/09 05:10:04;;;;;;;17.67;3.33;;;5.30;99.90;;;;;;5055827;28;20214;-87
2022/01/09 05:12:30;;;;;;;11.40;2.50;;;5.30;99.90;;;;;;5055580;28;20260;-88
2022/01/09 05:14:55;;;;;;;9.53;2.30;;;5.30;99.90;;;;;;5055494;28;20206;-88
2022/01/09 05:17:21;;;;;;;19.90;3.47;;;5.30;99.90;;;;;;5055572;28;20180;-89
2022/01/09 05:19:47;;;;;;;19.13;3.10;;;5.30;99.90;;;;;;5055772;28;20279;-88
2022/01/09 05:22:13;;;;;;;13.30;2.63;;;5.30;99.90;;;;;;5073689;28;20165;-87
2022/01/09 05:24:39;;;;;;;6.77;2.00;;;5.30;99.90;;;;;;5055319;28;20567;-89
2022/01/09 05:27:04;;;;;;;15.40;3.30;;;5.30;99.90;;;;;;5055469;28;20183;-86
2022/01/09 05:29:30;;;;;;;11.87;2.13;;;5.30;99.90;;;;;;5055498;28;20556;-88
2022/01/09 05:31:56;;;;;;;21.10;3.07;;;5.30;99.90;;;;;;5055681;28;20258;-87
2022/01/09 05:34:22;;;;;;;9.50;2.10;;;5.30;99.90;;;;;;5073614;28;20200;-88
2022/01/09 05:36:47;;;;;;;11.83;2.33;;;5.70;99.90;;;;;;5055405;28;20655;-88
2022/01/09 05:39:13;;;;;;;12.03;2.73;;;5.20;99.90;;;;;;5055246;28;20226;-88
2022/01/09 05:41:41;;;;;;;17.93;2.87;;;5.20;99.90;;;;;;5073309;28;20260;-90
2022/01/09 05:44:07;;;;;;;20.83;3.60;;;5.20;99.90;;;;;;5055174;28;20201;-88
2022/01/09 05:46:32;;;;;;;10.60;2.37;;;5.10;99.90;;;;;;5073253;28;20319;-89
2022/01/09 05:48:58;;;;;;;13.53;3.07;;;5.20;99.90;;;;;;5073484;28;20192;-90
2022/01/09 05:51:23;;;;;;;14.93;2.87;;;5.20;99.90;;;;;;5055326;28;20204;-88
2022/01/09 05:53:49;;;;;;;11.27;1.77;;;5.10;99.90;;;;;;5058435;28;20185;-88
2022/01/09 05:56:14;;;;;;;13.03;2.73;;;5.40;99.90;;;;;;5059667;28;20196;-90
2022/01/09 05:58:40;;;;;;;20.97;3.03;;;5.20;99.90;;;;;;5059287;28;20182;-88
2022/01/09 06:01:07;;;;;;;14.40;2.37;;;5.20;99.90;;;;;;5077164;28;20258;-88
2022/01/09 06:03:33;;;;;;;10.53;2.17;;;5.20;99.90;;;;;;5077015;28;20172;-87
2022/01/09 06:05:59;;;;;;;8.93;2.00;;;5.20;99.90;;;;;;5058899;28;20273;-89
2022/01/09 06:08:25;;;;;;;13.60;3.00;;;5.20;99.90;;;;;;5058906;28;20182;-89
2022/01/09 06:10:50;;;;;;;13.57;3.40;;;5.20;99.90;;;;;;5058928;28;20670;-88
2022/01/09 06:13:16;;;;;;;12.87;3.10;;;5.20;99.90;;;;;;5058760;28;20199;-89
2022/01/09 06:15:42;;;;;;;11.87;2.63;;;5.10;99.90;;;;;;5058860;28;20276;-91
2022/01/09 06:18:08;;;;;;;15.30;2.73;;;5.30;99.90;;;;;;5059151;28;20182;-90
2022/01/09 06:20:33;;;;;;;14.90;3.03;;;5.10;99.90;;;;;;5058631;28;20237;-89
2022/01/09 06:22:59;;;;;;;14.10;2.57;;;5.10;99.90;;;;;;5058941;28;20543;-89
2022/01/09 06:25:24;;;;;;;20.97;3.53;;;5.10;99.90;;;;;;5058495;28;20204;-89
2022/01/09 06:27:50;;;;;;;14.90;3.20;;;5.10;99.90;;;;;;5059004;28;20190;-88
2022/01/09 06:30:16;;;;;;;11.53;2.47;;;5.00;99.90;;;;;;5058611;28;20216;-89
2022/01/09 06:32:41;;;;;;;9.47;2.80;;;5.00;99.90;;;;;;5058586;28;20200;-87
2022/01/09 06:35:08;;;;;;;22.53;2.17;;;5.00;99.90;;;;;;5058248;28;20675;-87
2022/01/09 06:37:33;;;;;;;13.27;2.80;;;5.00;99.90;;;;;;5058590;28;20183;-89
2022/01/09 06:39:59;;;;;;;8.93;2.10;;;5.00;99.90;;;;;;5058372;28;20179;-88
2022/01/09 06:42:25;;;;;;;14.43;2.33;;;5.00;99.90;;;;;;5058533;28;20194;-89
2022/01/09 06:44:51;;;;;;;8.47;2.40;;;5.00;99.90;;;;;;5076078;28;20326;-90
2022/01/09 06:47:17;;;;;;;15.67;2.93;;;5.00;99.90;;;;;;5058111;28;20655;-88
2022/01/09 06:49:43;;;;;;;5.33;1.53;;;5.00;99.90;;;;;;5058302;28;20672;-89
2022/01/09 06:52:08;;;;;;;10.80;2.20;;;5.00;99.90;;;;;;5058196;28;20203;-89
2022/01/09 06:54:34;;;;;;;14.73;2.70;;;4.90;99.90;;;;;;5057990;28;20714;-86
2022/01/09 06:57:00;;;;;;;15.33;2.80;;;4.90;99.90;;;;;;5058210;28;20279;-90
2022/01/09 06:59:25;;;;;;;8.97;2.30;;;4.90;99.90;;;;;;5058017;28;20552;-90
2022/01/09 07:01:51;;;;;;;12.53;3.97;;;4.80;99.90;;;;;;5057896;28;20184;-88
2022/01/09 07:04:17;;;;;;;17.03;3.40;;;4.80;99.90;;;;;;5076100;28;20211;-87
2022/01/09 07:06:42;;;;;;;18.87;3.80;;;4.80;99.90;;;;;;5058077;28;20189;-88
2022/01/09 07:09:08;;;;;;;14.97;3.33;;;4.80;99.90;;;;;;5057869;28;20192;-89
2022/01/09 07:11:34;;;;;;;12.23;2.80;;;4.80;99.90;;;;;;5076255;28;20242;-89
2022/01/09 07:14:00;;;;;;;11.57;3.07;;;4.80;99.90;;;;;;5058600;28;20165;-90
2022/01/09 07:16:26;;;;;;;6.53;1.90;;;4.80;99.90;;;;;;5058366;28;20263;-89
2022/01/09 07:18:51;;;;;;;8.23;2.13;;;5.00;99.90;;;;;;5057894;28;20212;-90
2022/01/09 07:21:17;;;;;;;5.53;1.60;;;4.80;99.90;;;;;;5057715;28;20184;-89
2022/01/09 07:23:43;;;;;;;10.03;2.30;;;4.80;99.90;;;;;;5075799;28;20196;-90
2022/01/09 07:26:08;;;;;;;12.30;2.10;;;4.80;99.90;;;;;;5057489;28;20215;-90
2022/01/09 07:28:34;;;;;;;6.83;3.93;;;5.60;99.90;;;;;;5057457;28;20219;-90
2022/01/09 07:31:00;;;;;;;5.53;2.37;;;4.80;99.90;;;;;;5057891;28;20180;-88
2022/01/09 07:33:25;;;;;;;10.07;3.10;;;4.80;99.90;;;;;;5057687;28;20726;-89
2022/01/09 07:35:51;;;;;;;7.60;2.33;;;4.80;99.90;;;;;;5057151;28;20204;-90
2022/01/09 07:38:16;;;;;;;10.23;2.80;;;4.80;99.90;;;;;;5057433;28;20172;-89
2022/01/09 07:40:42;;;;;;;13.33;2.57;;;4.80;99.90;;;;;;5057110;28;20647;-89
2022/01/09 07:43:08;;;;;;;9.60;2.00;;;4.80;99.90;;;;;;5057220;28;20188;-88
2022/01/09 07:45:34;;;;;;;18.23;2.53;;;4.70;99.90;;;;;;5075240;28;20226;-88
2022/01/09 07:48:03;;;;;;;7.00;2.00;;;4.70;99.90;;;;;;5075014;28;20194;-88
2022/01/09 07:50:28;;;;;;;7.53;2.33;;;4.60;99.90;;;;;;5057097;28;20194;-89
2022/01/09 07:52:55;;;;;;;9.90;2.50;;;4.70;99.90;;;;;;5057005;28;20203;-87
2022/01/09 07:55:22;;;;;;;12.57;2.30;;;4.70;99.90;;;;;;5056798;28;20663;-87
2022/01/09 07:57:48;;;;;;;11.97;2.40;;;4.70;99.90;;;;;;5057456;28;20283;-88
2022/01/09 08:00:15;;;;;;;14.37;2.90;;;4.70;99.90;;;;;;5074883;28;20228;-89
2022/01/09 08:02:41;;;;;;;10.97;2.37;;;4.70;99.90;;;;;;5056824;28;20195;-89
2022/01/09 08:05:08;;;;;;;13.63;2.20;;;4.70;99.90;;;;;;5056885;28;20341;-88
2022/01/09 08:07:34;;;;;;;6.00;1.90;;;4.70;99.90;;;;;;5056517;28;20254;-89
2022/01/09 08:09:59;;;;;;;13.87;3.10;;;4.70;99.90;;;;;;5057070;28;20643;-89
2022/01/09 08:12:25;;;;;;;9.83;2.30;;;4.70;99.90;;;;;;5056906;28;20203;-90
2022/01/09 08:14:50;;;;;;;14.00;2.10;;;4.70;99.90;;;;;;5074422;28;20203;-89
2022/01/09 08:17:16;;;;;;;12.17;2.60;;;4.70;99.90;;;;;;5056887;28;20640;-90
2022/01/09 08:19:42;;;;;;;8.53;2.73;;;4.70;99.90;;;;;;5056638;28;20184;-89
2022/01/09 08:22:08;;;;;;;15.87;3.20;;;4.70;99.90;;;;;;5056646;28;20187;-87
2022/01/09 08:24:34;;;;;;;11.63;3.07;;;4.70;99.90;;;;;;5074713;28;20206;-89
2022/01/09 08:27:00;;;;;;;6.33;2.23;;;4.70;99.90;;;;;;5056464;28;20210;-90
2022/01/09 08:29:26;;;;;;;11.47;2.73;;;4.70;99.90;;;;;;5056489;28;20649;-89
2022/01/09 08:31:52;;;;;;;17.43;3.80;;;4.60;99.90;;;;;;5056624;28;20668;-89
2022/01/09 08:34:17;;;;;;;13.87;3.10;;;4.70;99.90;;;;;;5056867;28;20261;-89
2022/01/09 08:36:43;;;;;;;7.70;2.83;;;4.70;99.90;;;;;;5057058;28;20175;-90
2022/01/09 08:39:10;;;;;;;4.10;1.70;;;4.70;99.90;;;;;;5056915;28;20254;-91
2022/01/09 08:41:36;;;;;;;5.70;2.10;;;5.40;99.90;;;;;;5056715;28;20179;-89
2022/01/09 08:44:04;;;;;;;12.83;2.50;;;4.70;99.90;;;;;;5074108;28;20199;-89
2022/01/09 08:46:31;;;;;;;11.07;3.30;;;4.80;99.90;;;;;;5056750;28;20600;-88
2022/01/09 08:48:57;;;;;;;8.90;2.17;;;4.70;99.90;;;;;;5056358;28;20578;-88
2022/01/09 08:51:23;;;;;;;4.07;1.20;;;4.80;99.90;;;;;;5056779;28;20184;-89
2022/01/09 08:53:51;;;;;;;12.80;3.00;;;4.70;99.90;;;;;;5056740;28;20191;-90
2022/01/09 08:56:22;;;;;;;8.97;2.37;;;4.80;99.90;;;;;;5056157;28;20286;-88
2022/01/09 08:58:48;;;;;;;4.57;2.10;;;4.80;99.90;;;;;;5074339;28;20183;-89
2022/01/09 09:01:14;;;;;;;7.47;1.93;;;4.70;99.90;;;;;;5073876;28;20262;-89
2022/01/09 09:03:43;;;;;;;9.70;2.73;;;4.70;99.90;;;;;;5055804;28;20179;-89
2022/01/09 09:06:10;;;;;;;7.43;2.50;;;4.70;99.90;;;;;;5073669;28;20200;-89
2022/01/09 09:08:36;;;;;;;7.73;1.97;;;4.70;99.90;;;;;;5055662;28;20599;-90
2022/01/09 09:11:02;;;;;;;12.43;3.10;;;4.80;99.90;;;;;;5076856;28;20167;-89
2022/01/09 09:13:28;;;;;;;13.47;3.43;;;4.70;99.90;;;;;;5055464;28;20204;-89
2022/01/09 09:15:53;;;;;;;8.53;2.43;;;4.90;99.90;;;;;;5055575;28;20269;-89
2022/01/09 09:18:19;;;;;;;9.63;3.57;;;4.80;99.90;;;;;;5055934;28;20591;-90
2022/01/09 09:20:44;;;;;;;14.90;3.07;;;4.80;99.90;;;;;;5055585;28;20190;-88
2022/01/09 09:23:11;;;;;;;6.77;2.10;;;4.80;99.90;;;;;;5055545;28;20191;-88
2022/01/09 09:25:36;;;;;;;6.27;2.30;;;4.80;99.90;;;;;;5055623;28;20558;-90
2022/01/09 09:28:02;;;;;;;12.37;3.07;;;4.80;99.90;;;;;;5054600;28;20262;-90
2022/01/09 09:30:28;;;;;;;12.57;3.03;;;4.80;99.90;;;;;;5058476;28;20192;-90
2022/01/09 09:32:54;;;;;;;10.13;3.00;;;4.90;99.90;;;;;;5055560;28;20207;-89
2022/01/09 09:35:19;;;;;;;4.33;1.60;;;4.80;99.90;;;;;;5055380;28;20199;-89
2022/01/09 09:37:45;;;;;;;9.57;2.87;;;4.90;99.90;;;;;;5055636;28;20186;-88
2022/01/09 09:40:11;;;;;;;5.40;1.57;;;4.90;99.90;;;;;;5055873;28;20689;-89
2022/01/09 09:42:36;;;;;;;10.97;3.00;;;5.00;99.90;;;;;;5055360;28;20219;-89
2022/01/09 09:45:07;;;;;;;4.63;2.63;;;5.00;99.90;;;;;;5073563;28;20325;-89
2022/01/09 09:47:34;;;;;;;5.07;2.50;;;5.10;99.90;;;;;;5055466;28;20197;-88
2022/01/09 09:50:00;;;;;;;9.23;3.07;;;5.10;99.90;;;;;;5055299;28;20208;-89
2022/01/09 09:52:26;;;;;;;4.33;1.80;;;5.10;99.90;;;;;;5055473;28;20234;-87
2022/01/09 09:54:53;;;;;;;2.97;2.07;;;5.20;99.90;;;;;;5055274;28;20658;-88
2022/01/09 09:57:19;;;;;;;9.17;3.00;;;5.20;99.90;;;;;;5055312;28;20211;-88
2022/01/09 09:59:44;;;;;;;7.97;3.43;;;5.30;99.90;;;;;;5055533;28;20592;-89
2022/01/09 10:02:16;;;;;;;6.07;2.07;;;5.30;99.90;;;;;;5055341;28;20197;-88
2022/01/09 10:05:03;;;;;;;7.20;2.80;;;5.20;99.90;;;;;;5055396;28;20298;-90
2022/01/09 10:07:29;;;;;;;9.67;3.07;;;5.30;99.90;;;;;;5056196;28;20207;-87
2022/01/09 10:09:58;;;;;;;10.13;3.13;;;5.30;99.90;;;;;;5055338;28;20183;-87
2022/01/09 10:12:26;;;;;;;11.77;3.20;;;5.20;99.90;;;;;;5055488;28;20203;-89
2022/01/09 10:14:54;;;;;;;5.17;2.40;;;5.20;99.90;;;;;;5055280;28;20605;-87
2022/01/09 10:17:20;;;;;;;5.57;1.33;;;5.20;99.90;;;;;;5055237;28;20181;-88
2022/01/09 10:19:55;;;;;;;13.57;3.20;;;5.20;99.90;;;;;;5073431;28;20227;-89
2022/01/09 10:22:44;;;;;;;12.50;3.10;;;5.20;99.90;;;;;;5055240;28;20182;-88
2022/01/09 10:25:26;;;;;;;6.93;2.73;;;5.20;99.90;;;;;;5055279;28;20684;-89
2022/01/09 10:28:13;;;;;;;9.83;2.40;;;5.10;99.90;;;;;;5055194;28;20181;-88
2022/01/09 10:30:42;;;;;;;7.40;2.73;;;5.10;99.90;;;;;;5055166;28;20575;-88
2022/01/09 10:33:13;;;;;;;7.83;2.70;;;5.10;99.90;;;;;;5055528;28;20240;-88
2022/01/09 10:35:41;;;;;;;11.83;2.93;;;5.10;99.90;;;;;;5055024;28;20214;-88
2022/01/09 10:38:16;;;;;;;8.23;2.63;;;5.10;99.90;;;;;;5055504;28;20176;-89
2022/01/09 10:40:49;;;;;;;10.37;3.43;;;5.10;99.90;;;;;;5058627;28;20215;-88
2022/01/09 10:43:21;;;;;;;9.90;2.40;;;5.00;99.90;;;;;;5058379;28;20185;-89
2022/01/09 10:45:50;;;;;;;7.70;3.17;;;5.10;99.90;;;;;;5058866;28;20264;-89
2022/01/09 10:48:22;;;;;;;11.97;3.27;;;5.10;99.90;;;;;;5058439;28;20189;-87
2022/01/09 10:50:49;;;;;;;9.63;2.93;;;5.10;99.90;;;;;;5059581;28;20191;-89
2022/01/09 10:53:32;;;;;;;9.83;3.13;;;5.00;99.90;;;;;;5059259;28;20718;-90
2022/01/09 10:56:15;;;;;;;8.93;3.00;;;5.00;99.90;;;;;;5059303;28;20582;-89
2022/01/09 10:58:48;;;;;;;3.93;1.67;;;5.00;99.90;;;;;;5059814;28;20168;-89
2022/01/09 11:01:23;;;;;;;10.90;3.20;;;5.00;99.90;;;;;;5059700;28;20258;-91
2022/01/09 11:03:54;;;;;;;14.17;2.57;;;5.00;99.90;;;;;;5059462;28;20194;-91
2022/01/09 11:06:21;;;;;;;9.93;3.40;;;5.00;99.90;;;;;;5059579;28;20202;-88
2022/01/09 11:08:47;;;;;;;9.33;2.93;;;5.00;99.90;;;;;;5059190;28;20186;-91
2022/01/09 11:11:28;;;;;;;9.13;2.37;;;5.00;99.90;;;;;;5077287;28;20655;-89
2022/01/09 11:13:56;;;;;;;7.00;2.50;;;4.90;99.90;;;;;;5059886;28;20175;-89
2022/01/09 11:16:42;;;;;;;7.57;3.10;;;5.30;99.90;;;;;;5059088;28;20264;-92
2022/01/09 11:19:19;;;;;;;10.17;3.77;;;4.90;99.90;;;;;;5059647;28;20180;-91
2022/01/09 11:21:50;;;;;;;13.70;3.90;;;5.00;99.90;;;;;;5059477;28;20239;-90
2022/01/09 11:24:42;;;;;;;17.33;6.20;;;5.00;99.90;;;;;;5059253;28;20172;-92
2022/01/09 11:27:25;;;;;;;12.20;4.20;;;5.00;99.90;;;;;;5029380;28;20188;-88
2022/01/09 11:30:19;;;;;;;14.27;4.23;;;5.10;99.90;;;;;;5059588;28;20168;-90
2022/01/09 11:33:33;;;;;;;14.07;5.20;;;5.20;99.90;;;;;;5077996;28;20529;-89
2022/01/09 11:36:20;;;;;;;8.70;2.10;;;5.20;99.90;;;;;;5041782;28;20205;-90
2022/01/09 11:38:59;;;;;;;10.57;3.43;;;5.20;99.90;;;;;;5060173;28;20180;-93
2022/01/09 11:41:26;;;;;;;13.80;3.40;;;5.30;99.90;;;;;;5060065;28;20169;-88
2022/01/09 11:44:06;;;;;;;11.77;3.57;;;5.30;99.90;;;;;;5059899;28;20276;-89
2022/01/09 11:46:54;;;;;;;14.37;4.57;;;5.40;99.90;;;;;;5060131;28;20184;-90
2022/01/09 11:49:20;;;;;;;8.70;3.47;;;5.40;99.90;;;;;;5059977;28;20180;-88
2022/01/09 11:52:04;;;;;;;13.37;3.80;;;5.50;99.90;;;;;;5059625;28;20242;-92
2022/01/09 11:54:47;;;;;;;16.37;3.50;;;5.50;99.90;;;;;;5057510;28;20195;-89
2022/01/09 11:57:18;;;;;;;11.97;5.30;;;5.50;99.90;;;;;;5057223;28;20196;-89
2022/01/09 11:59:52;;;;;;;15.93;7.77;;;5.50;99.90;;;;;;5057437;28;20172;-90
2022/01/09 12:02:18;;;;;;;14.47;4.50;;;5.40;99.90;;;;;;5057067;28;20184;-88
2022/01/09 12:04:45;;;;;;;13.27;3.13;;;5.50;99.90;;;;;;5057440;28;20679;-88
2022/01/09 12:07:32;;;;;;;10.63;2.87;;;5.40;99.90;;;;;;5057058;28;20690;-88
2022/01/09 12:09:59;;;;;;;20.33;3.50;;;5.50;99.90;;;;;;5056905;28;20323;-89
2022/01/09 12:12:31;;;;;;;9.83;3.23;;;5.40;99.90;;;;;;5057274;28;20208;-89
2022/01/09 12:15:01;;;;;;;11.20;2.73;;;5.40;99.90;;;;;;5078334;28;20188;-90
2022/01/09 12:17:44;;;;;;;9.67;2.83;;;5.50;99.90;;;;;;5061727;28;20176;-91
2022/01/09 12:20:13;;;;;;;11.43;3.37;;;5.50;99.90;;;;;;5062057;28;20320;-94
2022/01/09 12:22:51;;;;;;;10.23;2.93;;;5.50;99.90;;;;;;5080442;28;20177;-89
2022/01/09 12:25:25;;;;;;;15.00;2.67;;;5.50;99.90;;;;;;5061718;28;20227;-91
2022/01/09 12:28:05;;;;;;;11.03;2.63;;;5.50;99.90;;;;;;5061991;28;20207;-91
2022/01/09 12:30:31;;;;;;;10.07;2.80;;;5.70;99.90;;;;;;5062096;28;20181;-92
2022/01/09 12:32:57;;;;;;;14.30;3.20;;;5.70;99.90;;;;;;5061937;28;20670;-92
2022/01/09 12:35:23;;;;;;;9.07;3.30;;;5.70;99.90;;;;;;5062463;28;20208;-92
2022/01/09 12:37:55;;;;;;;15.23;3.43;;;5.80;99.90;;;;;;5080585;28;20203;-93
2022/01/09 12:40:24;;;;;;;14.17;3.03;;;5.90;99.90;;;;;;5062103;28;20180;-93
2022/01/09 12:42:53;;;;;;;12.80;3.20;;;6.00;99.90;;;;;;5062704;28;20214;-91
2022/01/09 12:45:21;;;;;;;11.10;3.33;;;6.00;99.90;;;;;;5063303;28;20277;-91
2022/01/09 12:47:47;;;;;;;11.17;2.87;;;6.00;99.90;;;;;;5057412;28;20181;-89
2022/01/09 12:50:13;;;;;;;8.90;2.67;;;6.30;99.90;;;;;;5056269;28;20267;-89
2022/01/09 12:52:39;;;;;;;16.13;2.70;;;6.00;99.90;;;;;;5074235;28;20335;-88
2022/01/09 12:55:09;;;;;;;7.20;2.40;;;6.00;99.90;;;;;;5056235;28;20204;-89